createdAt,value
2022-08-09T00:00:13.244Z,19.84
2022-08-09T00:02:42.893Z,18.75
2022-08-09T00:06:15.426Z,19.58
2022-08-09T00:08:11.089Z,20.19
2022-08-09T00:10:40.261Z,19.21
2022-08-09T00:13:17.198Z,20.27
2022-08-09T00:15:59.668Z,19.62
2022-08-09T00:18:35.031Z,20.11
2022-08-09T00:21:08.936Z,18.55
2022-08-09T00:23:56.330Z,20.08
2022-08-09T00:26:29.819Z,18.88
2022-08-09T00:29:01.793Z,18.56
2022-08-09T00:31:58.361Z,19.80
2022-08-09T00:34:19.159Z,17.99
2022-08-09T00:36:48.281Z,19.72
2022-08-09T00:40:08.965Z,19.62
2022-08-09T00:44:15.389Z,18.34
2022-08-09T00:44:51.012Z,20.07
2022-08-09T00:47:21.865Z,19.35
2022-08-09T00:49:56.627Z,18.62
2022-08-09T00:52:30.175Z,19.27
2022-08-09T00:55:01.185Z,19.16
2022-08-09T00:57:34.288Z,19.69
2022-08-09T01:00:21.264Z,18.24
2022-08-09T01:03:09.431Z,18.94
2022-08-09T01:05:54.902Z,18.62
2022-08-09T01:08:45.672Z,19.08
2022-08-09T01:11:42.058Z,18.89
2022-08-09T01:14:36.850Z,18.58
2022-08-09T01:17:17.814Z,18.23
2022-08-09T01:20:09.878Z,17.66
2022-08-09T01:22:45.730Z,18.07
2022-08-09T01:25:57.417Z,17.91
2022-08-09T01:28:26.180Z,17.60
2022-08-09T01:30:58.975Z,18.52
2022-08-09T01:33:31.013Z,18.58
2022-08-09T01:36:07.609Z,18.16
2022-08-09T01:38:44.298Z,17.91
2022-08-09T01:41:25.954Z,18.07
2022-08-09T01:43:57.905Z,17.69
2022-08-09T01:46:31.684Z,17.89
2022-08-09T01:49:09.579Z,18.07
2022-08-09T01:51:44.618Z,18.55
2022-08-09T01:54:32.639Z,17.35
2022-08-09T01:57:08.936Z,17.91
2022-08-09T01:59:50.839Z,18.04
2022-08-09T02:02:30.917Z,17.30
2022-08-09T02:05:05.228Z,16.90
2022-08-09T02:08:40.763Z,16.93
2022-08-09T02:10:30.429Z,17.74
2022-08-09T02:13:04.073Z,17.74
2022-08-09T02:15:49.208Z,17.43
2022-08-09T02:18:29.270Z,17.52
2022-08-09T02:21:03.031Z,17.42
2022-08-09T02:23:43.054Z,16.67
2022-08-09T02:26:26.804Z,16.33
2022-08-09T02:29:00.377Z,17.80
2022-08-09T02:31:40.593Z,18.35
2022-08-09T02:34:40.961Z,17.34
2022-08-09T02:37:14.953Z,17.69
2022-08-09T02:40:01.808Z,17.26
2022-08-09T02:42:42.108Z,17.92
2022-08-09T02:45:29.229Z,17.23
2022-08-09T02:48:03.676Z,16.75
2022-08-09T02:50:41.411Z,17.37
2022-08-09T02:53:25.966Z,17.10
2022-08-09T02:55:59.159Z,17.26
2022-08-09T02:58:35.680Z,16.69
2022-08-09T03:01:08.190Z,17.31
2022-08-09T03:04:17.690Z,16.94
2022-08-09T03:06:29.334Z,16.40
2022-08-09T03:08:57.777Z,17.08
2022-08-09T03:12:04.158Z,15.99
2022-08-09T03:14:15.904Z,16.84
2022-08-09T03:16:45.194Z,17.56
2022-08-09T03:19:59.416Z,15.76
2022-08-09T03:22:11.770Z,17.12
2022-08-09T03:24:51.025Z,17.39
2022-08-09T03:27:22.234Z,16.58
2022-08-09T03:29:57.933Z,16.09
2022-08-09T03:32:37.192Z,16.68
2022-08-09T03:35:09.198Z,16.72
2022-08-09T03:37:55.835Z,16.27
2022-08-09T03:40:24.639Z,16.81
2022-08-09T03:42:52.018Z,17.49
2022-08-09T03:46:04.011Z,16.52
2022-08-09T03:48:06.526Z,15.93
2022-08-09T03:50:36.259Z,16.49
2022-08-09T03:53:06.211Z,16.58
2022-08-09T03:55:40.939Z,17.29
2022-08-09T03:58:16.891Z,17.03
2022-08-09T04:00:49.608Z,15.98
2022-08-09T04:03:24.575Z,16.45
2022-08-09T04:06:04.678Z,16.71
2022-08-09T04:08:34.804Z,16.42
2022-08-09T04:11:02.957Z,16.19
2022-08-09T04:14:37.693Z,16.46
2022-08-09T04:16:21.608Z,17.13
2022-08-09T04:18:51.174Z,16.91
2022-08-09T04:21:19.182Z,16.03
2022-08-09T04:23:53.666Z,16.77
2022-08-09T04:26:23.395Z,16.75
2022-08-09T04:28:51.804Z,16.41
2022-08-09T04:31:21.136Z,16.98
2022-08-09T04:33:52.591Z,16.34
2022-08-09T04:36:28.204Z,17.33
2022-08-09T04:39:01.963Z,17.32
2022-08-09T04:41:33.230Z,16.57
2022-08-09T04:44:11.013Z,16.80
2022-08-09T04:46:59.386Z,17.83
2022-08-09T04:49:53.415Z,17.23
2022-08-09T04:52:32.425Z,17.43
2022-08-09T04:55:05.071Z,16.58
2022-08-09T04:57:58.444Z,17.73
2022-08-09T05:00:24.693Z,18.58
2022-08-09T05:02:59.292Z,20.38
2022-08-09T05:05:52.019Z,21.32
2022-08-09T05:08:20.136Z,22.25
2022-08-09T05:10:48.455Z,23.99
2022-08-09T05:13:15.432Z,25.60
2022-08-09T05:15:48.171Z,24.86
2022-08-09T05:18:55.093Z,25.06
2022-08-09T05:21:10.086Z,25.47
2022-08-09T05:23:53.843Z,26.28
2022-08-09T05:26:36.355Z,25.58
2022-08-09T05:29:17.673Z,26.63
2022-08-09T05:31:50.706Z,26.48
2022-08-09T05:34:31.358Z,28.64
2022-08-09T05:37:07.048Z,26.92
2022-08-09T05:39:43.223Z,29.62
2022-08-09T05:42:17.227Z,30.09
2022-08-09T05:44:54.598Z,28.60
2022-08-09T05:47:24.167Z,28.82
2022-08-09T05:50:29.980Z,28.77
2022-08-09T05:52:43.640Z,28.95
2022-08-09T05:55:20.512Z,29.47
2022-08-09T05:57:51.057Z,31.13
2022-08-09T06:00:28.611Z,28.02
2022-08-09T06:03:02.237Z,30.05
2022-08-09T06:05:54.782Z,28.54
2022-08-09T06:08:24.497Z,28.15
2022-08-09T06:10:56.964Z,25.69
2022-08-09T06:13:26.216Z,24.42
2022-08-09T06:15:55.916Z,23.74
2022-08-09T06:18:23.963Z,25.24
2022-08-09T06:20:58.305Z,25.20
2022-08-09T06:23:58.171Z,23.68
2022-08-09T06:26:20.129Z,23.76
2022-08-09T06:29:01.168Z,24.10
2022-08-09T06:31:40.265Z,24.19
2022-08-09T06:34:22.528Z,25.03
2022-08-09T06:36:59.282Z,23.35
2022-08-09T06:39:48.334Z,23.90
2022-08-09T06:42:24.587Z,24.31
2022-08-09T06:44:57.304Z,24.97
2022-08-09T06:47:25.078Z,24.64
2022-08-09T06:50:13.267Z,24.17
2022-08-09T06:52:48.669Z,24.02
2022-08-09T06:55:23.042Z,23.42
2022-08-09T06:58:02.721Z,25.12
2022-08-09T07:00:56.498Z,24.42
2022-08-09T07:03:19.707Z,25.68
2022-08-09T07:06:04.532Z,24.99
2022-08-09T07:08:37.020Z,24.63
2022-08-09T07:11:05.153Z,25.17
2022-08-09T07:13:44.978Z,25.27
2022-08-09T07:16:42.093Z,25.60
2022-08-09T07:19:15.123Z,25.38
2022-08-09T07:21:55.922Z,25.07
2022-08-09T07:24:32.814Z,25.27
2022-08-09T07:27:27.360Z,26.27
2022-08-09T07:29:59.888Z,25.40
2022-08-09T07:32:33.487Z,26.27
2022-08-09T07:35:11.796Z,25.93
2022-08-09T07:37:45.779Z,25.60
2022-08-09T07:40:18.264Z,26.39
2022-08-09T07:42:59.018Z,26.21
2022-08-09T07:45:39.645Z,26.03
2022-08-09T07:48:29.652Z,26.52
2022-08-09T07:51:09.370Z,26.19
2022-08-09T07:54:05.043Z,27.35
2022-08-09T07:56:37.044Z,26.47
2022-08-09T07:59:33.690Z,27.66
2022-08-09T08:02:07.031Z,27.58
2022-08-09T08:04:36.622Z,27.99
2022-08-09T08:07:09.321Z,27.66
2022-08-09T08:10:08.894Z,27.45
2022-08-09T08:12:43.770Z,27.99
2022-08-09T08:15:24.162Z,27.67
2022-08-09T08:17:57.859Z,28.04
2022-08-09T08:20:32.589Z,27.76
2022-08-09T08:23:17.173Z,28.30
2022-08-09T08:25:50.154Z,27.90
2022-08-09T08:28:32.491Z,28.96
2022-08-09T08:31:10.587Z,28.09
2022-08-09T08:33:52.359Z,28.58
2022-08-09T08:36:29.333Z,28.48
2022-08-09T08:39:01.265Z,28.53
2022-08-09T08:41:50.398Z,28.65
2022-08-09T08:44:23.289Z,29.64
2022-08-09T08:47:02.654Z,29.43
2022-08-09T08:49:46.804Z,29.16
2022-08-09T08:52:57.982Z,29.97
2022-08-09T08:55:13.581Z,29.72
2022-08-09T08:57:42.659Z,30.13
2022-08-09T09:00:16.878Z,29.48
2022-08-09T09:02:52.989Z,30.28
2022-08-09T09:05:33.382Z,30.28
2022-08-09T09:08:31.066Z,30.52
2022-08-09T09:11:04.425Z,29.46
2022-08-09T09:13:54.794Z,30.31
2022-08-09T09:16:32.289Z,29.50
2022-08-09T09:19:36.948Z,30.11
2022-08-09T09:22:04.086Z,30.25
2022-08-09T09:24:49.222Z,30.21
2022-08-09T09:28:03.681Z,29.63
2022-08-09T09:30:40.681Z,30.56
2022-08-09T09:33:16.139Z,30.39
2022-08-09T09:36:01.428Z,30.55
2022-08-09T09:39:08.781Z,31.57
2022-08-09T09:41:49.712Z,30.98
2022-08-09T09:44:35.580Z,31.21
2022-08-09T09:47:16.339Z,30.50
2022-08-09T09:50:14.266Z,30.79
2022-08-09T09:52:56.943Z,31.33
2022-08-09T09:55:32.586Z,32.00
2022-08-09T09:58:18.669Z,31.52
2022-08-09T10:00:58.534Z,32.10
2022-08-09T10:03:57.083Z,32.16
2022-08-09T10:06:42.764Z,31.78
2022-08-09T10:09:22.820Z,32.29
2022-08-09T10:12:11.626Z,32.37
2022-08-09T10:14:44.153Z,32.52
2022-08-09T10:17:39.295Z,32.37
2022-08-09T10:20:27.789Z,32.60
2022-08-09T10:23:20.407Z,31.94
2022-08-09T10:26:06.007Z,32.27
2022-08-09T10:28:35.197Z,32.78
2022-08-09T10:34:08.729Z,33.28
2022-08-09T10:36:42.232Z,32.94
2022-08-09T10:39:15.439Z,32.51
2022-08-09T10:41:46.279Z,32.88
2022-08-09T10:44:21.530Z,32.04
2022-08-09T10:48:12.266Z,33.32
2022-08-09T10:51:06.746Z,33.14
2022-08-09T10:54:05.069Z,33.40
2022-08-09T10:56:37.997Z,32.48
2022-08-09T10:59:30.816Z,33.69
2022-08-09T11:03:15.112Z,32.91
2022-08-09T11:05:30.305Z,33.18
2022-08-09T11:08:47.513Z,33.16
2022-08-09T11:11:19.513Z,32.92
2022-08-09T11:14:07.440Z,33.71
2022-08-09T11:16:39.030Z,33.28
2022-08-09T11:19:10.278Z,33.52
2022-08-09T11:22:05.358Z,33.52
2022-08-09T11:25:15.080Z,33.88
2022-08-09T11:28:03.665Z,33.81
2022-08-09T11:30:37.662Z,33.30
2022-08-09T11:33:30.791Z,33.39
2022-08-09T11:36:00.741Z,34.38
2022-08-09T11:38:35.347Z,33.70
2022-08-09T11:41:13.008Z,33.67
2022-08-09T11:43:48.891Z,33.42
2022-08-09T11:46:26.804Z,33.31
2022-08-09T11:49:05.397Z,34.37
2022-08-09T11:52:59.206Z,34.57
2022-08-09T11:55:52.021Z,33.94
2022-08-09T11:58:19.915Z,34.51
2022-08-09T12:01:08.379Z,34.14
2022-08-09T12:03:57.045Z,34.26
2022-08-09T12:06:32.562Z,34.83
2022-08-09T12:09:19.450Z,34.75
2022-08-09T12:12:02.307Z,34.99
2022-08-09T12:14:40.777Z,34.49
2022-08-09T12:17:34.440Z,35.02
2022-08-09T12:20:23.517Z,34.67
2022-08-09T12:23:03.699Z,34.64
2022-08-09T12:25:37.098Z,34.56
2022-08-09T12:29:10.985Z,35.85
2022-08-09T12:31:10.898Z,34.86
2022-08-09T12:33:58.822Z,35.23
2022-08-09T12:36:32.079Z,34.37
2022-08-09T12:39:00.837Z,34.55
2022-08-09T12:41:39.164Z,34.79
2022-08-09T12:44:12.751Z,34.73
2022-08-09T12:46:48.810Z,35.15
2022-08-09T12:49:18.009Z,34.54
2022-08-09T12:52:02.394Z,35.45
2022-08-09T12:56:11.727Z,34.81
2022-08-09T12:57:46.971Z,36.31
2022-08-09T13:00:17.549Z,35.72
2022-08-09T13:02:57.582Z,33.98
2022-08-09T13:05:51.788Z,35.58
2022-08-09T13:08:40.010Z,34.79
2022-08-09T13:11:13.273Z,34.67
2022-08-09T13:14:37.041Z,35.50
2022-08-09T13:16:47.982Z,34.97
2022-08-09T13:20:07.574Z,35.13
2022-08-09T13:22:35.901Z,35.20
2022-08-09T13:25:14.198Z,35.82
2022-08-09T13:27:54.686Z,34.97
2022-08-09T13:30:50.670Z,35.11
2022-08-09T13:33:22.934Z,35.63
2022-08-09T13:36:38.769Z,35.29
2022-08-09T13:38:55.429Z,34.94
2022-08-09T13:41:58.041Z,35.94
2022-08-09T13:44:13.814Z,36.03
2022-08-09T13:47:26.963Z,35.73
2022-08-09T13:49:39.863Z,35.78
2022-08-09T13:52:24.620Z,35.87
2022-08-09T13:54:59.287Z,34.92
2022-08-09T13:57:39.806Z,35.22
2022-08-09T14:00:28.449Z,35.67
2022-08-09T14:03:03.939Z,35.55
2022-08-09T14:06:01.353Z,36.04
2022-08-09T14:08:31.610Z,34.92
2022-08-09T14:11:00.496Z,36.53
2022-08-09T14:14:23.378Z,35.52
2022-08-09T14:16:28.372Z,35.45
2022-08-09T14:18:58.113Z,35.72
2022-08-09T14:21:29.169Z,36.18
2022-08-09T14:24:00.982Z,36.22
2022-08-09T14:26:33.717Z,35.59
2022-08-09T14:29:08.080Z,36.16
2022-08-09T14:31:55.080Z,35.19
2022-08-09T14:34:31.243Z,35.31
2022-08-09T14:37:08.245Z,35.69
2022-08-09T14:39:46.634Z,35.66
2022-08-09T14:42:31.149Z,35.68
2022-08-09T14:46:40.560Z,35.28
2022-08-09T14:47:58.661Z,35.46
2022-08-09T14:50:31.224Z,36.00
2022-08-09T14:53:01.194Z,35.47
2022-08-09T14:55:29.157Z,35.96
2022-08-09T14:58:01.019Z,35.19
2022-08-09T15:00:32.115Z,34.96
2022-08-09T15:03:03.785Z,34.97
2022-08-09T15:05:31.971Z,35.14
2022-08-09T15:08:00.413Z,35.50
2022-08-09T15:10:31.513Z,35.88
2022-08-09T15:13:01.474Z,35.77
2022-08-09T15:15:34.438Z,35.60
2022-08-09T15:18:14.379Z,34.36
2022-08-09T15:21:57.883Z,35.00
2022-08-09T15:24:05.635Z,34.66
2022-08-09T15:26:19.235Z,35.15
2022-08-09T15:29:04.479Z,35.12
2022-08-09T15:31:41.530Z,35.81
2022-08-09T15:34:32.270Z,35.04
2022-08-09T15:36:58.075Z,34.80
2022-08-09T15:39:43.914Z,35.69
2022-08-09T15:42:14.779Z,34.63
2022-08-09T15:44:42.434Z,34.77
2022-08-09T15:47:14.615Z,35.50
2022-08-09T15:50:03.891Z,35.34
2022-08-09T15:52:36.122Z,35.33
2022-08-09T15:55:06.983Z,35.00
2022-08-09T15:57:51.135Z,35.29
2022-08-09T16:00:25.186Z,34.85
2022-08-09T16:02:54.722Z,34.69
2022-08-09T16:05:47.466Z,34.84
2022-08-09T16:08:30.168Z,35.23
2022-08-09T16:11:02.226Z,34.55
2022-08-09T16:14:04.273Z,34.53
2022-08-09T16:16:26.073Z,34.75
2022-08-09T16:18:55.670Z,34.40
2022-08-09T16:21:25.203Z,34.67
2022-08-09T16:23:58.741Z,35.25
2022-08-09T16:26:34.129Z,35.11
2022-08-09T16:29:11.084Z,34.76
2022-08-09T16:32:19.527Z,34.45
2022-08-09T16:34:54.752Z,34.65
2022-08-09T16:37:55.604Z,34.06
2022-08-09T16:40:13.709Z,34.08
2022-08-09T16:42:45.631Z,34.47
2022-08-09T16:45:18.720Z,33.93
2022-08-09T16:48:41.192Z,34.16
2022-08-09T16:50:38.665Z,34.28
2022-08-09T16:53:06.890Z,34.08
2022-08-09T16:55:59.842Z,33.57
2022-08-09T16:58:24.923Z,33.17
2022-08-09T17:00:52.960Z,33.29
2022-08-09T17:03:22.839Z,33.63
2022-08-09T17:06:03.508Z,33.55
2022-08-09T17:09:01.520Z,33.35
2022-08-09T17:11:33.025Z,33.22
2022-08-09T17:14:25.701Z,33.54
2022-08-09T17:16:54.621Z,33.69
2022-08-09T17:19:22.044Z,33.17
2022-08-09T17:21:55.576Z,33.32
2022-08-09T17:24:28.024Z,33.06
2022-08-09T17:26:58.486Z,33.12
2022-08-09T17:29:31.656Z,33.56
2022-08-09T17:32:05.312Z,32.97
2022-08-09T17:35:02.055Z,32.71
2022-08-09T17:37:21.175Z,33.00
2022-08-09T17:39:53.702Z,32.70
2022-08-09T17:42:41.631Z,32.47
2022-08-09T17:45:23.768Z,32.78
2022-08-09T17:48:02.506Z,32.65
2022-08-09T17:50:37.189Z,32.54
2022-08-09T17:53:10.473Z,32.57
2022-08-09T17:55:48.781Z,32.40
2022-08-09T17:58:18.987Z,32.65
2022-08-09T18:00:48.091Z,32.30
2022-08-09T18:03:17.609Z,32.21
2022-08-09T18:05:45.405Z,32.09
2022-08-09T18:08:22.049Z,32.23
2022-08-09T18:11:01.647Z,31.66
2022-08-09T18:13:40.128Z,31.99
2022-08-09T18:16:30.469Z,31.71
2022-08-09T18:19:03.907Z,32.12
2022-08-09T18:21:47.142Z,31.23
2022-08-09T18:24:17.449Z,31.47
2022-08-09T18:26:46.955Z,31.78
2022-08-09T18:30:35.189Z,31.35
2022-08-09T18:32:05.404Z,31.61
2022-08-09T18:34:35.435Z,30.83
2022-08-09T18:37:10.350Z,30.95
2022-08-09T18:39:55.369Z,31.03
2022-08-09T18:42:29.177Z,31.24
2022-08-09T18:45:00.823Z,30.92
2022-08-09T18:47:32.710Z,30.93
2022-08-09T18:50:09.014Z,30.60
2022-08-09T18:52:37.761Z,30.19
2022-08-09T18:55:13.729Z,29.81
2022-08-09T18:57:44.674Z,30.63
2022-08-09T19:00:20.046Z,30.04
2022-08-09T19:02:51.325Z,29.92
2022-08-09T19:05:49.161Z,29.63
2022-08-09T19:08:18.405Z,28.73
2022-08-09T19:10:47.903Z,28.40
2022-08-09T19:13:20.902Z,28.68
2022-08-09T19:16:02.559Z,28.55
2022-08-09T19:18:33.098Z,28.87
2022-08-09T19:21:08.794Z,29.38
2022-08-09T19:24:35.982Z,29.01
2022-08-09T19:26:34.767Z,28.33
2022-08-09T19:29:15.564Z,28.13
2022-08-09T19:31:51.191Z,27.49
2022-08-09T19:34:23.011Z,27.80
2022-08-09T19:36:56.249Z,28.21
2022-08-09T19:39:43.221Z,27.59
2022-08-09T19:42:15.357Z,27.64
2022-08-09T19:44:50.509Z,27.19
2022-08-09T19:47:23.258Z,28.18
2022-08-09T19:50:06.933Z,27.21
2022-08-09T19:52:37.507Z,27.18
2022-08-09T19:55:17.539Z,27.05
2022-08-09T19:57:46.583Z,26.74
2022-08-09T20:00:15.997Z,27.68
2022-08-09T20:04:17.341Z,27.81
2022-08-09T20:05:46.077Z,26.98
2022-08-09T20:08:16.144Z,26.91
2022-08-09T20:10:52.532Z,26.97
2022-08-09T20:13:20.745Z,26.73
2022-08-09T20:16:34.927Z,26.18
2022-08-09T20:18:35.670Z,26.55
2022-08-09T20:21:03.676Z,27.34
2022-08-09T20:23:39.133Z,26.24
2022-08-09T20:26:13.303Z,26.14
2022-08-09T20:28:47.688Z,25.84
2022-08-09T20:31:15.865Z,26.66
2022-08-09T20:33:44.055Z,25.78
2022-08-09T20:36:13.124Z,25.67
2022-08-09T20:41:35.435Z,25.97
2022-08-09T20:44:10.141Z,25.74
2022-08-09T20:46:44.331Z,26.05
2022-08-09T20:49:16.675Z,26.18
2022-08-09T20:51:50.571Z,25.77
2022-08-09T20:54:18.328Z,26.19
2022-08-09T20:56:49.465Z,26.23
2022-08-09T20:59:17.789Z,25.87
2022-08-09T21:02:04.781Z,25.88
2022-08-09T21:05:57.759Z,25.39
2022-08-09T21:07:19.243Z,25.80
2022-08-09T21:09:56.852Z,25.65
2022-08-09T21:15:23.728Z,25.42
2022-08-09T21:18:23.093Z,25.32
2022-08-09T21:20:50.267Z,25.39
2022-08-09T21:23:36.118Z,25.48
2022-08-09T21:26:09.824Z,25.29
2022-08-09T21:28:37.179Z,25.43
2022-08-09T21:31:13.597Z,24.32
2022-08-09T21:33:51.440Z,25.42
2022-08-09T21:36:25.917Z,24.65
2022-08-09T21:38:59.828Z,24.86
2022-08-09T21:42:03.589Z,25.21
2022-08-09T21:44:34.601Z,24.83
2022-08-09T21:47:09.185Z,23.11
2022-08-09T21:49:42.563Z,24.14
2022-08-09T21:52:18.497Z,23.90
2022-08-09T21:55:03.033Z,23.68
2022-08-09T21:57:38.611Z,23.76
2022-08-09T22:00:32.304Z,23.65
2022-08-09T22:03:12.544Z,22.40
2022-08-09T22:05:47.545Z,22.39
2022-08-09T22:08:18.831Z,22.81
2022-08-09T22:11:04.837Z,22.98
2022-08-09T22:13:37.171Z,22.07
2022-08-09T22:16:09.100Z,22.68
2022-08-09T22:18:53.121Z,21.42
2022-08-09T22:21:45.316Z,22.84
2022-08-09T22:24:21.186Z,22.80
2022-08-09T22:26:53.303Z,22.55
2022-08-09T22:29:28.966Z,21.64
2022-08-09T22:31:59.444Z,22.40
2022-08-09T22:34:27.458Z,22.93
2022-08-09T22:36:59.658Z,20.71
2022-08-09T22:39:57.183Z,21.22
2022-08-09T22:42:20.689Z,22.35
2022-08-09T22:48:06.161Z,21.64
2022-08-09T22:48:16.724Z,20.89
2022-08-09T22:50:26.910Z,20.39
2022-08-09T22:52:57.916Z,20.09
2022-08-09T22:55:39.781Z,21.34
2022-08-09T22:58:31.063Z,21.77
2022-08-09T23:01:03.682Z,20.95
2022-08-09T23:04:03.673Z,21.58
2022-08-09T23:06:35.785Z,21.73
2022-08-09T23:09:05.813Z,20.73
2022-08-09T23:11:33.079Z,19.96
2022-08-09T23:14:00.390Z,21.30
2022-08-09T23:16:27.464Z,21.27
2022-08-09T23:18:54.525Z,20.92
2022-08-09T23:21:26.845Z,20.20
2022-08-09T23:24:05.260Z,20.27
2022-08-09T23:26:36.073Z,21.88
2022-08-09T23:29:04.942Z,20.99
2022-08-09T23:31:31.935Z,20.76
2022-08-09T23:33:59.175Z,20.07
2022-08-09T23:36:27.010Z,20.49
2022-08-09T23:38:54.020Z,20.57
2022-08-09T23:41:28.601Z,19.53
2022-08-09T23:44:01.864Z,19.72
2022-08-09T23:46:30.004Z,20.29
2022-08-09T23:48:58.618Z,20.04
2022-08-09T23:51:26.942Z,19.78
2022-08-09T23:54:02.377Z,20.12
2022-08-09T23:56:52.860Z,19.50
2022-08-09T23:59:23.160Z,19.66
